Time;durP1;ratioP1;P1;durP2;ratioP2;P2;SDS_P1;SDS_P2;PMS_P1;PMS_P2;Temp;Humidity;BMP_temperature;BMP_pressure;BME280_temperature;BME280_humidity;BME280_pressure;Samples;Min_cycle;Max_cycle;Signal;HPM_P1;HPM_P2
2021/05/08 00:00:00;;;;;;;10.47;4.73;;;5.90;97.30;;;;;;4919038;29;20508;-87
2021/05/08 00:02:26;;;;;;;7.97;4.47;;;5.90;97.30;;;;;;4919002;29;20196;-88
2021/05/08 00:04:51;;;;;;;8.97;4.73;;;5.90;97.30;;;;;;4918974;29;20323;-87
2021/05/08 00:07:17;;;;;;;6.63;4.90;;;5.90;97.30;;;;;;4919078;29;20195;-86
2021/05/08 00:09:42;;;;;;;6.90;4.40;;;5.90;97.30;;;;;;4920077;29;20234;-86
2021/05/08 00:12:09;;;;;;;7.57;4.87;;;5.80;97.30;;;;;;4920078;29;20206;-87
2021/05/08 00:14:35;;;;;;;6.90;5.03;;;5.80;97.30;;;;;;4919901;29;20179;-87
2021/05/08 00:17:00;;;;;;;10.20;4.90;;;5.80;97.30;;;;;;4937111;29;20492;-87
2021/05/08 00:19:26;;;;;;;9.10;5.07;;;5.70;97.30;;;;;;4920916;29;20494;-87
2021/05/08 00:21:51;;;;;;;6.73;4.60;;;5.70;97.30;;;;;;4921444;29;20192;-87
2021/05/08 00:24:18;;;;;;;9.10;4.97;;;5.70;97.30;;;;;;4921550;29;20192;-87
2021/05/08 00:26:43;;;;;;;8.60;5.80;;;5.60;97.30;;;;;;4938870;29;20214;-87
2021/05/08 00:29:09;;;;;;;7.53;4.57;;;5.60;97.30;;;;;;4921660;29;20435;-87
2021/05/08 00:31:34;;;;;;;7.47;5.03;;;5.50;97.30;;;;;;4921723;29;20202;-87
2021/05/08 00:34:00;;;;;;;6.90;5.00;;;5.40;97.30;;;;;;4921922;29;20187;-87
2021/05/08 00:36:25;;;;;;;8.50;5.93;;;5.40;97.30;;;;;;4922134;29;20184;-87
2021/05/08 00:38:51;;;;;;;7.53;5.27;;;5.40;97.30;;;;;;4921804;29;20208;-87
2021/05/08 00:41:17;;;;;;;6.60;4.80;;;5.40;97.30;;;;;;4921473;29;20188;-86
2021/05/08 00:43:42;;;;;;;7.60;4.77;;;5.40;97.30;;;;;;4921537;29;20225;-87
2021/05/08 00:46:08;;;;;;;7.23;4.87;;;5.50;97.30;;;;;;4920691;29;20211;-87
2021/05/08 00:48:34;;;;;;;7.10;4.97;;;5.50;97.30;;;;;;4917826;29;20655;-87
2021/05/08 00:51:00;;;;;;;6.10;4.30;;;5.60;97.30;;;;;;4901801;29;20427;-87
2021/05/08 00:53:26;;;;;;;7.83;5.20;;;5.60;97.30;;;;;;4901786;29;20207;-88
2021/05/08 00:55:51;;;;;;;8.93;4.60;;;5.60;97.30;;;;;;4901836;29;20881;-87
2021/05/08 00:58:18;;;;;;;6.77;5.03;;;5.60;97.30;;;;;;4901111;29;20200;-87
2021/05/08 01:00:44;;;;;;;6.70;4.50;;;5.60;97.30;;;;;;4901646;29;20180;-87
2021/05/08 01:03:12;;;;;;;11.37;4.77;;;5.60;97.30;;;;;;4901559;29;20436;-86
2021/05/08 01:05:37;;;;;;;6.37;4.10;;;5.60;97.30;;;;;;4900588;29;20423;-87
2021/05/08 01:08:04;;;;;;;7.90;4.73;;;5.60;97.30;;;;;;4901069;29;20421;-87
2021/05/08 01:10:31;;;;;;;7.33;4.37;;;5.60;97.30;;;;;;4900594;29;20180;-87
2021/05/08 01:12:58;;;;;;;7.37;5.00;;;5.60;97.30;;;;;;4901122;29;20499;-87
2021/05/08 01:15:24;;;;;;;6.10;5.20;;;5.60;97.30;;;;;;4900222;29;20427;-87
2021/05/08 01:17:50;;;;;;;7.50;5.20;;;5.50;97.30;;;;;;4900085;29;20547;-87
2021/05/08 01:20:16;;;;;;;8.67;4.60;;;5.50;97.30;;;;;;4899058;29;20451;-87
2021/05/08 01:22:42;;;;;;;7.53;4.80;;;5.50;97.30;;;;;;4899951;29;20436;-87
2021/05/08 01:25:16;;;;;;;5.17;4.33;;;5.40;97.30;;;;;;4899984;29;20240;-87
2021/05/08 01:27:53;;;;;;;7.30;5.30;;;5.40;97.30;;;;;;4899933;29;20421;-87
2021/05/08 01:30:21;;;;;;;8.07;4.80;;;5.30;97.30;;;;;;4900011;29;20936;-87
2021/05/08 01:32:48;;;;;;;7.03;4.40;;;5.30;97.30;;;;;;4899851;29;20577;-86
2021/05/08 01:35:14;;;;;;;8.20;4.00;;;5.20;97.30;;;;;;4900094;29;20421;-87
2021/05/08 01:37:39;;;;;;;6.33;4.60;;;5.20;97.30;;;;;;4899988;29;20456;-87
2021/05/08 01:40:10;;;;;;;6.10;5.10;;;5.10;97.30;;;;;;4900098;29;20783;-87
2021/05/08 01:42:37;;;;;;;7.13;5.00;;;5.10;97.30;;;;;;4900025;29;20196;-86
2021/05/08 01:45:13;;;;;;;11.00;4.80;;;5.10;97.30;;;;;;4898567;29;20480;-87
2021/05/08 01:47:39;;;;;;;10.70;4.83;;;5.10;97.30;;;;;;4899598;29;20947;-87
2021/05/08 01:50:07;;;;;;;5.77;4.60;;;5.10;97.30;;;;;;4901042;29;20431;-87
2021/05/08 01:52:33;;;;;;;6.83;5.30;;;5.10;97.30;;;;;;4900969;29;20433;-86
2021/05/08 01:55:01;;;;;;;8.43;4.70;;;5.10;97.30;;;;;;4901036;29;20435;-86
2021/05/08 01:57:27;;;;;;;7.00;4.90;;;5.10;97.30;;;;;;4901256;29;20207;-87
2021/05/08 01:59:52;;;;;;;7.23;4.80;;;5.10;97.30;;;;;;4901908;29;20420;-87
2021/05/08 02:02:18;;;;;;;6.33;4.50;;;5.10;97.30;;;;;;4918439;29;20201;-87
2021/05/08 02:04:43;;;;;;;9.93;5.33;;;5.00;97.30;;;;;;4902013;29;20176;-87
2021/05/08 02:07:09;;;;;;;6.43;4.87;;;5.00;97.30;;;;;;4918850;29;20185;-87
2021/05/08 02:09:34;;;;;;;7.37;4.83;;;4.90;97.30;;;;;;4901544;29;20180;-87
2021/05/08 02:12:00;;;;;;;6.00;4.90;;;4.90;97.30;;;;;;4932100;29;20250;-87
2021/05/08 02:14:25;;;;;;;7.07;4.70;;;4.80;97.30;;;;;;4939064;29;20680;-84
2021/05/08 02:16:51;;;;;;;9.07;5.00;;;4.70;97.30;;;;;;4939196;29;20303;-87
2021/05/08 02:19:16;;;;;;;10.80;5.33;;;4.60;97.30;;;;;;4938948;29;20167;-86
2021/05/08 02:21:42;;;;;;;7.27;4.37;;;4.50;97.30;;;;;;4940415;29;20261;-87
2021/05/08 02:24:08;;;;;;;9.63;5.30;;;4.40;97.30;;;;;;4942485;29;20182;-86
2021/05/08 02:26:33;;;;;;;8.10;4.63;;;4.20;97.30;;;;;;4942416;29;20258;-87
2021/05/08 02:28:59;;;;;;;8.30;4.77;;;4.00;97.30;;;;;;4942555;29;20437;-87
2021/05/08 02:31:24;;;;;;;6.73;5.07;;;4.00;97.30;;;;;;4941971;29;20225;-86
2021/05/08 02:33:50;;;;;;;7.00;5.30;;;3.90;97.30;;;;;;4942078;29;20231;-87
2021/05/08 02:36:15;;;;;;;7.57;5.37;;;3.90;97.30;;;;;;4941990;29;20289;-88
2021/05/08 02:38:41;;;;;;;6.23;4.80;;;3.90;97.30;;;;;;4941780;29;20699;-87
2021/05/08 02:41:06;;;;;;;7.23;5.40;;;3.90;97.30;;;;;;4942101;29;20175;-87
2021/05/08 02:43:32;;;;;;;6.77;4.83;;;3.90;97.30;;;;;;4942047;29;20223;-87
2021/05/08 02:45:57;;;;;;;7.83;5.63;;;3.90;97.30;;;;;;4959118;29;20186;-87
2021/05/08 02:48:29;;;;;;;6.30;4.90;;;3.80;97.30;;;;;;4945529;29;20179;-86
2021/05/08 02:50:54;;;;;;;7.33;5.47;;;3.80;97.30;;;;;;4943544;29;20179;-87
2021/05/08 02:53:20;;;;;;;7.60;5.13;;;3.70;97.30;;;;;;4940826;29;20987;-87
2021/05/08 02:55:45;;;;;;;6.20;4.93;;;3.70;97.30;;;;;;4940825;29;20194;-87
2021/05/08 02:58:11;;;;;;;9.30;5.47;;;3.60;97.30;;;;;;4939332;29;20211;-87
2021/05/08 03:00:36;;;;;;;10.60;6.10;;;3.70;97.30;;;;;;4939160;29;20231;-87
2021/05/08 03:03:02;;;;;;;7.83;5.70;;;3.70;97.30;;;;;;4955890;29;20813;-87
2021/05/08 03:05:27;;;;;;;9.03;6.20;;;3.80;97.30;;;;;;4939853;29;20175;-87
2021/05/08 03:07:53;;;;;;;10.77;5.40;;;3.90;97.30;;;;;;4939423;29;20535;-88
2021/05/08 03:10:18;;;;;;;10.60;5.77;;;4.00;97.30;;;;;;4939425;29;20717;-87
2021/05/08 03:12:44;;;;;;;10.67;5.47;;;4.10;97.30;;;;;;4939326;29;20231;-87
2021/05/08 03:15:10;;;;;;;8.90;5.50;;;4.20;97.30;;;;;;4939558;29;20179;-87
2021/05/08 03:17:36;;;;;;;9.10;4.97;;;4.30;97.30;;;;;;4956438;29;20655;-87
2021/05/08 03:20:02;;;;;;;11.00;5.67;;;4.20;97.30;;;;;;4939069;29;20521;-87
2021/05/08 03:22:27;;;;;;;6.50;5.03;;;4.20;97.30;;;;;;4956127;29;20207;-87
2021/05/08 03:24:53;;;;;;;9.07;5.93;;;4.20;97.30;;;;;;4940149;29;20426;-87
2021/05/08 03:27:18;;;;;;;8.03;5.87;;;4.20;97.30;;;;;;4940371;29;20600;-88
2021/05/08 03:29:44;;;;;;;7.90;5.67;;;4.30;97.30;;;;;;4940519;29;20229;-88
2021/05/08 03:32:09;;;;;;;6.43;4.80;;;4.30;97.30;;;;;;4939876;28;20234;-87
2021/05/08 03:34:35;;;;;;;7.90;5.13;;;4.40;97.30;;;;;;4941872;29;20274;-89
2021/05/08 03:37:00;;;;;;;6.63;5.10;;;4.30;97.30;;;;;;4943242;29;20613;-87
2021/05/08 03:39:26;;;;;;;6.70;5.33;;;4.30;97.30;;;;;;4950179;28;20171;-92
2021/05/08 03:41:51;;;;;;;7.10;5.43;;;4.20;97.30;;;;;;4964531;28;20190;-91
2021/05/08 03:44:17;;;;;;;7.60;5.87;;;4.30;97.30;;;;;;4942261;29;20190;-87
2021/05/08 03:46:43;;;;;;;7.10;5.60;;;4.30;97.30;;;;;;4942533;29;20195;-87
2021/05/08 03:49:08;;;;;;;12.03;6.23;;;4.30;97.30;;;;;;4942218;29;20195;-87
2021/05/08 03:51:34;;;;;;;10.83;5.63;;;4.30;97.30;;;;;;4941851;29;20182;-87
2021/05/08 03:53:59;;;;;;;8.30;5.80;;;4.20;97.30;;;;;;4941667;29;20266;-87
2021/05/08 03:56:25;;;;;;;7.00;5.60;;;4.10;97.30;;;;;;4940874;29;20185;-87
2021/05/08 03:58:51;;;;;;;7.93;6.57;;;4.10;97.30;;;;;;4940264;29;20234;-88
2021/05/08 04:01:17;;;;;;;9.07;5.77;;;4.20;97.30;;;;;;4939155;29;20640;-87
2021/05/08 04:03:43;;;;;;;11.83;5.97;;;4.20;97.30;;;;;;4938835;29;20349;-88
2021/05/08 04:06:08;;;;;;;9.60;6.60;;;4.20;97.30;;;;;;4939304;29;20646;-87
2021/05/08 04:08:34;;;;;;;7.23;5.83;;;4.30;97.30;;;;;;4939398;29;20183;-86
2021/05/08 04:10:59;;;;;;;8.73;5.30;;;4.30;97.30;;;;;;4939388;29;20642;-89
2021/05/08 04:13:25;;;;;;;8.80;6.20;;;4.20;97.30;;;;;;4938794;29;20210;-85
2021/05/08 04:15:51;;;;;;;9.50;6.37;;;4.20;97.30;;;;;;4939228;29;20561;-87
2021/05/08 04:18:17;;;;;;;10.77;7.23;;;4.20;97.30;;;;;;4938931;29;20215;-87
2021/05/08 04:20:45;;;;;;;7.10;5.70;;;4.20;97.30;;;;;;4939630;29;20266;-88
2021/05/08 04:23:10;;;;;;;9.13;6.07;;;4.30;97.30;;;;;;4939818;29;20435;-88
2021/05/08 04:25:36;;;;;;;7.67;5.50;;;4.30;97.30;;;;;;4954684;29;20777;-87
2021/05/08 04:28:01;;;;;;;10.07;5.60;;;4.30;97.30;;;;;;4938104;29;20183;-88
2021/05/08 04:30:31;;;;;;;7.37;5.47;;;4.30;97.30;;;;;;4937358;28;20555;-88
2021/05/08 04:32:56;;;;;;;8.70;5.27;;;4.40;97.30;;;;;;4937234;29;20276;-87
2021/05/08 04:35:22;;;;;;;7.93;5.90;;;4.40;97.30;;;;;;4937488;29;20806;-87
2021/05/08 04:37:47;;;;;;;8.13;5.40;;;4.40;97.30;;;;;;4937508;29;20297;-87
2021/05/08 04:40:13;;;;;;;10.47;5.90;;;4.50;97.30;;;;;;4937651;29;20190;-87
2021/05/08 04:42:38;;;;;;;9.10;5.27;;;4.50;97.30;;;;;;4936944;29;20203;-87
2021/05/08 04:45:05;;;;;;;8.43;5.37;;;4.50;97.30;;;;;;4938074;29;20194;-87
2021/05/08 04:47:31;;;;;;;12.43;7.00;;;4.50;97.30;;;;;;4956018;29;20210;-87
2021/05/08 04:50:01;;;;;;;10.40;6.63;;;4.50;97.30;;;;;;4938903;29;20942;-87
2021/05/08 04:52:27;;;;;;;8.07;5.67;;;4.60;97.30;;;;;;4938608;29;20646;-86
2021/05/08 04:54:53;;;;;;;6.97;6.10;;;4.60;97.30;;;;;;4938823;29;20462;-88
2021/05/08 04:57:19;;;;;;;10.43;6.57;;;4.70;97.30;;;;;;4937404;29;20217;-87
2021/05/08 04:59:45;;;;;;;10.07;5.63;;;4.80;97.30;;;;;;4938806;29;20179;-86
2021/05/08 05:02:10;;;;;;;10.23;6.47;;;4.80;97.30;;;;;;4937155;29;20450;-87
2021/05/08 05:04:38;;;;;;;10.37;5.90;;;4.90;97.30;;;;;;4956328;29;20203;-87
2021/05/08 05:07:03;;;;;;;9.10;6.00;;;5.00;97.30;;;;;;4940079;29;20203;-87
2021/05/08 05:09:38;;;;;;;7.73;5.40;;;5.10;97.30;;;;;;4939721;29;20442;-87
2021/05/08 05:12:09;;;;;;;8.73;6.27;;;5.20;97.30;;;;;;4939926;29;20226;-87
2021/05/08 05:14:35;;;;;;;8.20;6.03;;;5.30;97.30;;;;;;4940344;29;20427;-87
2021/05/08 05:17:00;;;;;;;9.90;6.33;;;5.40;97.30;;;;;;4921567;29;20419;-88
2021/05/08 05:19:31;;;;;;;9.00;6.40;;;5.50;97.30;;;;;;4945877;29;20181;-87
2021/05/08 05:21:56;;;;;;;10.50;6.17;;;5.70;97.30;;;;;;4933091;29;20257;-88
2021/05/08 05:24:22;;;;;;;9.70;6.00;;;5.90;97.30;;;;;;4945128;29;20423;-87
2021/05/08 05:26:47;;;;;;;7.83;6.17;;;6.10;97.30;;;;;;4924824;29;20195;-87
2021/05/08 05:29:13;;;;;;;9.20;6.40;;;6.30;97.30;;;;;;4933828;29;20175;-86
2021/05/08 05:31:41;;;;;;;10.33;6.40;;;6.40;97.30;;;;;;4929583;29;20184;-87
2021/05/08 05:34:07;;;;;;;11.10;6.40;;;6.60;96.90;;;;;;4931027;29;20199;-88
2021/05/08 05:36:32;;;;;;;11.37;6.57;;;6.60;96.50;;;;;;4927955;29;20408;-87
2021/05/08 05:38:59;;;;;;;10.83;6.63;;;6.70;96.10;;;;;;4928343;29;20725;-87
2021/05/08 05:41:26;;;;;;;8.70;6.57;;;6.80;95.70;;;;;;4927634;29;20242;-87
2021/05/08 05:43:51;;;;;;;8.77;6.30;;;6.90;95.80;;;;;;4929937;29;20916;-87
2021/05/08 05:46:17;;;;;;;13.43;7.37;;;7.00;95.30;;;;;;4929891;29;20422;-87
2021/05/08 05:48:42;;;;;;;10.17;6.10;;;7.10;95.10;;;;;;4945453;29;20175;-89
2021/05/08 05:51:08;;;;;;;10.10;6.23;;;7.10;94.90;;;;;;4943745;29;20203;-87
2021/05/08 05:53:34;;;;;;;10.17;6.10;;;7.20;95.00;;;;;;4927647;29;20202;-87
2021/05/08 05:56:01;;;;;;;11.73;7.30;;;7.30;95.10;;;;;;4925742;29;20183;-87
2021/05/08 05:58:26;;;;;;;11.97;5.90;;;7.30;93.60;;;;;;4928611;29;20485;-86
2021/05/08 06:00:52;;;;;;;13.80;6.40;;;7.30;94.70;;;;;;4929010;29;20403;-87
2021/05/08 06:03:17;;;;;;;8.60;6.50;;;7.40;94.90;;;;;;4926443;29;20355;-86
2021/05/08 06:05:43;;;;;;;11.00;6.57;;;7.40;93.80;;;;;;4926428;29;20171;-88
2021/05/08 06:08:12;;;;;;;8.23;5.93;;;7.40;93.70;;;;;;4925545;29;20265;-87
2021/05/08 06:10:38;;;;;;;9.70;6.10;;;7.50;93.70;;;;;;4926440;29;20185;-87
2021/05/08 06:13:04;;;;;;;13.10;7.47;;;7.50;93.30;;;;;;4926563;29;20447;-87
2021/05/08 06:15:30;;;;;;;8.27;6.40;;;7.60;94.10;;;;;;4924733;29;20976;-87
2021/05/08 06:17:57;;;;;;;11.33;6.47;;;7.60;93.30;;;;;;4925657;29;20617;-87
2021/05/08 06:20:22;;;;;;;10.00;6.20;;;7.70;93.40;;;;;;4926337;29;20175;-89
2021/05/08 06:22:51;;;;;;;11.83;6.60;;;7.80;93.00;;;;;;4942589;29;20438;-87
2021/05/08 06:25:16;;;;;;;9.00;5.87;;;7.90;93.20;;;;;;4928367;29;20172;-88
2021/05/08 06:27:42;;;;;;;13.80;7.30;;;8.00;92.60;;;;;;4944886;29;20414;-87
2021/05/08 06:30:09;;;;;;;11.27;6.30;;;8.20;91.80;;;;;;4928705;29;20186;-86
2021/05/08 06:32:34;;;;;;;8.80;5.53;;;8.20;90.70;;;;;;4940249;29;20223;-87
2021/05/08 06:35:00;;;;;;;9.07;6.57;;;8.40;90.50;;;;;;4930132;29;20433;-87
2021/05/08 06:37:25;;;;;;;11.80;5.63;;;8.50;89.80;;;;;;4929171;29;20205;-87
2021/05/08 06:39:51;;;;;;;9.53;5.70;;;8.70;89.40;;;;;;4927273;29;20183;-87
2021/05/08 06:42:16;;;;;;;9.27;5.50;;;8.90;89.90;;;;;;4933634;29;20195;-87
2021/05/08 06:44:42;;;;;;;11.03;5.30;;;9.00;88.50;;;;;;4931063;29;20210;-87
2021/05/08 06:47:14;;;;;;;13.03;5.70;;;9.10;87.70;;;;;;4930800;29;20246;-87
2021/05/08 06:49:43;;;;;;;6.40;5.50;;;9.10;86.40;;;;;;4926307;29;20168;-87
2021/05/08 06:52:09;;;;;;;13.13;5.53;;;9.20;85.70;;;;;;4958320;23;21012;-83
2021/05/08 06:54:35;;;;;;;7.00;4.70;;;9.40;87.00;;;;;;4956481;28;20857;-87
2021/05/08 06:57:01;;;;;;;9.73;5.40;;;9.50;86.10;;;;;;4981544;28;20936;-86
2021/05/08 06:59:26;;;;;;;10.23;4.90;;;9.60;85.30;;;;;;4961553;28;20597;-86
2021/05/08 07:01:52;;;;;;;7.40;5.40;;;9.70;84.90;;;;;;4949443;29;20195;-86
2021/05/08 07:04:19;;;;;;;11.47;5.53;;;9.70;85.30;;;;;;4935525;29;20199;-86
2021/05/08 07:06:45;;;;;;;10.93;5.67;;;9.80;85.40;;;;;;4936610;29;20245;-86
2021/05/08 07:09:10;;;;;;;8.13;5.63;;;10.00;86.60;;;;;;4956420;29;20979;-86
2021/05/08 07:11:36;;;;;;;7.50;5.50;;;10.10;86.00;;;;;;4940668;28;20203;-86
2021/05/08 07:14:02;;;;;;;9.10;5.87;;;10.20;85.50;;;;;;4941153;29;20257;-84
2021/05/08 07:16:27;;;;;;;6.77;5.00;;;10.30;84.90;;;;;;4957494;28;20187;-85
2021/05/08 07:18:53;;;;;;;7.17;5.30;;;10.30;84.30;;;;;;4938710;29;20690;-87
2021/05/08 07:21:18;;;;;;;7.87;6.10;;;10.40;84.60;;;;;;4938392;28;20748;-85
2021/05/08 07:23:44;;;;;;;10.17;5.60;;;10.40;84.00;;;;;;4955934;29;20180;-86
2021/05/08 07:26:09;;;;;;;7.67;5.80;;;10.50;83.90;;;;;;4940348;29;20307;-86
2021/05/08 07:28:35;;;;;;;8.13;5.10;;;10.60;83.50;;;;;;4938633;29;20183;-85
2021/05/08 07:31:00;;;;;;;9.83;6.10;;;10.60;82.30;;;;;;4938699;29;20198;-86
2021/05/08 07:33:26;;;;;;;11.07;6.20;;;10.60;82.60;;;;;;4939073;29;20290;-86
2021/05/08 07:35:54;;;;;;;7.90;5.83;;;10.60;83.30;;;;;;4974064;28;20277;-84
2021/05/08 07:38:21;;;;;;;9.20;5.50;;;10.80;84.10;;;;;;4957882;28;20202;-84
2021/05/08 07:40:50;;;;;;;9.43;7.40;;;10.80;82.50;;;;;;4973761;28;20956;-86
2021/05/08 07:43:20;;;;;;;6.90;5.40;;;10.90;82.90;;;;;;4957687;28;20953;-86
2021/05/08 07:45:46;;;;;;;14.23;6.57;;;11.00;82.90;;;;;;4958125;28;20578;-85
2021/05/08 07:48:12;;;;;;;9.23;5.90;;;11.00;82.30;;;;;;4957000;28;20418;-86
2021/05/08 07:50:37;;;;;;;7.87;4.93;;;11.00;82.80;;;;;;4957118;28;20455;-86
2021/05/08 07:53:03;;;;;;;8.57;5.90;;;11.10;82.60;;;;;;4958309;28;20326;-85
2021/05/08 07:55:32;;;;;;;9.73;5.50;;;11.30;82.30;;;;;;4958282;28;20179;-86
2021/05/08 07:57:57;;;;;;;11.53;5.30;;;11.40;82.30;;;;;;4975664;28;20198;-86
2021/05/08 08:00:23;;;;;;;8.27;5.60;;;11.50;81.00;;;;;;4959260;28;20453;-86
2021/05/08 08:02:50;;;;;;;7.20;5.00;;;11.50;80.10;;;;;;4959078;28;20683;-86
2021/05/08 08:05:16;;;;;;;7.17;5.23;;;11.30;80.30;;;;;;4977414;28;20454;-85
2021/05/08 08:07:42;;;;;;;6.50;4.90;;;11.40;82.10;;;;;;4976735;28;20418;-86
2021/05/08 08:10:08;;;;;;;8.63;5.00;;;11.60;81.00;;;;;;4976839;28;20789;-86
2021/05/08 08:12:34;;;;;;;10.37;5.90;;;11.70;81.20;;;;;;4976696;28;20203;-86
2021/05/08 08:15:00;;;;;;;9.97;5.97;;;11.80;81.20;;;;;;4958487;28;20434;-85
2021/05/08 08:17:28;;;;;;;7.50;5.00;;;12.00;81.50;;;;;;4957611;28;20516;-86
2021/05/08 08:19:53;;;;;;;9.97;5.47;;;12.10;80.30;;;;;;4957707;28;20225;-86
2021/05/08 08:22:19;;;;;;;8.97;5.50;;;12.20;81.00;;;;;;4973858;28;20437;-87
2021/05/08 08:24:44;;;;;;;8.30;6.00;;;12.20;79.70;;;;;;4957443;28;20618;-86
2021/05/08 08:27:11;;;;;;;6.10;5.17;;;12.20;81.50;;;;;;4958145;28;20206;-87
2021/05/08 08:29:37;;;;;;;7.43;5.47;;;12.50;81.70;;;;;;4977089;28;20206;-86
2021/05/08 08:32:03;;;;;;;11.73;6.90;;;12.60;80.10;;;;;;4958835;28;20466;-86
2021/05/08 08:34:29;;;;;;;9.10;5.57;;;12.70;79.10;;;;;;4975504;28;20414;-86
2021/05/08 08:37:06;;;;;;;7.93;5.77;;;12.70;80.00;;;;;;4959149;28;20430;-86
2021/05/08 08:39:31;;;;;;;11.10;6.23;;;12.80;80.50;;;;;;4976342;28;20211;-86
2021/05/08 08:41:57;;;;;;;14.73;6.17;;;12.80;78.40;;;;;;4972930;28;20438;-87
2021/05/08 08:44:23;;;;;;;9.50;6.80;;;12.80;79.10;;;;;;4974485;28;20269;-87
2021/05/08 08:46:49;;;;;;;12.00;7.20;;;12.90;79.70;;;;;;4956617;28;20607;-86
2021/05/08 08:49:15;;;;;;;10.07;6.60;;;13.00;78.50;;;;;;4959392;28;20204;-84
2021/05/08 08:51:42;;;;;;;11.53;7.60;;;13.20;79.10;;;;;;4956817;28;20202;-86
2021/05/08 08:54:08;;;;;;;13.67;6.43;;;13.20;77.30;;;;;;4956007;28;20430;-86
2021/05/08 08:56:43;;;;;;;11.30;6.57;;;13.30;78.30;;;;;;4954716;28;20998;-88
2021/05/08 08:59:27;;;;;;;9.23;6.43;;;13.20;76.80;;;;;;4957073;28;20267;-86
2021/05/08 09:01:53;;;;;;;11.80;6.60;;;13.40;76.90;;;;;;4958054;28;20449;-87
2021/05/08 09:04:19;;;;;;;13.10;7.30;;;13.50;76.20;;;;;;4972984;28;20422;-86
2021/05/08 09:06:46;;;;;;;8.70;6.63;;;13.70;77.60;;;;;;4956485;28;20414;-87
2021/05/08 09:09:13;;;;;;;9.73;7.20;;;13.80;74.30;;;;;;4956872;28;20705;-85
2021/05/08 09:11:53;;;;;;;12.40;6.60;;;13.70;74.60;;;;;;4973560;28;20437;-86
2021/05/08 09:14:36;;;;;;;9.93;5.00;;;13.70;74.60;;;;;;4958041;28;20457;-85
2021/05/08 09:17:07;;;;;;;15.23;6.23;;;13.70;73.90;;;;;;4975176;28;20426;-86
2021/05/08 09:19:36;;;;;;;8.87;6.37;;;13.70;74.70;;;;;;4975192;28;20432;-86
2021/05/08 09:22:55;;;;;;;7.63;5.07;;;13.70;73.20;;;;;;4959156;28;20478;-85
2021/05/08 09:25:21;;;;;;;6.87;5.07;;;13.80;73.20;;;;;;4958471;28;20622;-86
2021/05/08 09:27:48;;;;;;;8.90;5.70;;;14.00;71.70;;;;;;4975455;28;20634;-86
2021/05/08 09:30:15;;;;;;;13.33;6.03;;;14.10;71.30;;;;;;4957491;28;20190;-86
2021/05/08 09:32:46;;;;;;;8.07;5.30;;;14.00;72.50;;;;;;4958003;28;20528;-87
2021/05/08 09:35:19;;;;;;;8.30;6.30;;;14.20;72.10;;;;;;4958551;28;21336;-85
2021/05/08 09:37:45;;;;;;;8.63;5.73;;;14.30;71.60;;;;;;4958794;28;20464;-86
2021/05/08 09:40:21;;;;;;;11.43;5.77;;;14.50;72.90;;;;;;4958323;28;20422;-85
2021/05/08 09:42:51;;;;;;;14.73;7.40;;;14.40;71.90;;;;;;4975800;28;20488;-87
2021/05/08 09:45:17;;;;;;;39.57;20.97;;;14.10;73.30;;;;;;4975558;28;20788;-86
2021/05/08 09:47:43;;;;;;;12.03;5.43;;;14.00;74.10;;;;;;4964261;28;20898;-86
2021/05/08 09:50:12;;;;;;;12.93;6.83;;;14.00;71.50;;;;;;4955713;29;20403;-86
2021/05/08 09:52:46;;;;;;;8.40;5.77;;;14.20;71.30;;;;;;4938397;29;20478;-86
2021/05/08 09:55:13;;;;;;;8.87;4.77;;;14.60;71.50;;;;;;4938653;29;20443;-86
2021/05/08 09:57:42;;;;;;;8.00;5.03;;;15.00;69.70;;;;;;4937914;29;20458;-86
2021/05/08 10:00:32;;;;;;;10.00;5.13;;;15.20;68.70;;;;;;4940664;28;20477;-87
2021/05/08 10:03:16;;;;;;;7.17;4.77;;;15.10;70.30;;;;;;4956647;28;20445;-86
2021/05/08 10:05:46;;;;;;;5.67;4.20;;;15.20;69.80;;;;;;4957391;28;20428;-86
2021/05/08 10:08:12;;;;;;;8.20;4.70;;;15.50;69.30;;;;;;4974885;28;20410;-86
2021/05/08 10:10:37;;;;;;;7.40;5.47;;;15.60;67.90;;;;;;4957553;28;20425;-85
2021/05/08 10:13:08;;;;;;;6.90;5.10;;;15.80;68.90;;;;;;4957602;28;20207;-85
2021/05/08 10:15:35;;;;;;;6.63;4.77;;;15.60;66.80;;;;;;4955991;28;20182;-86
2021/05/08 10:18:04;;;;;;;9.50;4.87;;;15.50;67.10;;;;;;4972367;28;20540;-86
2021/05/08 10:20:29;;;;;;;5.37;4.80;;;15.60;67.70;;;;;;4956122;28;20448;-86
2021/05/08 10:23:07;;;;;;;5.43;4.30;;;15.80;67.00;;;;;;4971480;28;20996;-87
2021/05/08 10:25:32;;;;;;;7.30;4.47;;;15.90;67.50;;;;;;4956359;28;20170;-87
2021/05/08 10:27:58;;;;;;;10.70;4.60;;;16.00;66.10;;;;;;4957081;28;20432;-85
2021/05/08 10:30:33;;;;;;;6.63;4.17;;;16.10;65.30;;;;;;4957812;28;20508;-87
2021/05/08 10:33:00;;;;;;;7.10;5.00;;;15.90;65.20;;;;;;4973481;28;20197;-86
2021/05/08 10:35:43;;;;;;;7.43;4.53;;;16.00;66.90;;;;;;4957205;28;20457;-87
2021/05/08 10:38:22;;;;;;;8.70;4.27;;;16.30;63.80;;;;;;4957663;28;20449;-87
2021/05/08 10:40:52;;;;;;;6.03;4.03;;;16.20;62.40;;;;;;4959659;28;20426;-88
2021/05/08 10:43:47;;;;;;;6.67;4.30;;;16.10;61.90;;;;;;4946670;28;20449;-86
2021/05/08 10:46:24;;;;;;;8.73;4.00;;;16.10;63.10;;;;;;4958688;29;20486;-87
2021/05/08 10:49:12;;;;;;;6.17;3.73;;;16.30;60.80;;;;;;4959075;29;20836;-87
2021/05/08 10:51:53;;;;;;;5.07;3.90;;;16.50;62.30;;;;;;4959559;28;20430;-86
2021/05/08 10:54:42;;;;;;;11.33;4.53;;;16.60;62.80;;;;;;4959963;29;20993;-86
2021/05/08 10:57:24;;;;;;;4.70;3.80;;;16.70;61.80;;;;;;4943329;29;20422;-86
2021/05/08 11:00:09;;;;;;;5.17;4.10;;;16.60;61.70;;;;;;4942677;29;20485;-87
2021/05/08 11:02:41;;;;;;;4.30;3.30;;;16.30;60.70;;;;;;4942083;29;20434;-87
2021/05/08 11:05:34;;;;;;;6.33;4.50;;;16.20;61.50;;;;;;4942519;29;20417;-85
2021/05/08 11:08:30;;;;;;;5.00;4.13;;;16.00;62.10;;;;;;4959531;29;20402;-86
2021/05/08 11:10:57;;;;;;;5.97;4.10;;;15.40;61.50;;;;;;4961234;28;20429;-86
2021/05/08 11:13:27;;;;;;;5.53;3.63;;;15.20;61.30;;;;;;4955132;28;20438;-85
2021/05/08 11:15:54;;;;;;;4.70;3.53;;;15.50;63.60;;;;;;4959774;29;20910;-86
2021/05/08 11:18:38;;;;;;;7.67;3.93;;;15.80;61.70;;;;;;4942934;29;20458;-86
2021/05/08 11:21:27;;;;;;;4.73;3.73;;;15.80;62.00;;;;;;4941732;29;20419;-82
2021/05/08 11:23:58;;;;;;;6.30;3.90;;;15.70;63.20;;;;;;4939481;29;20961;-86
2021/05/08 11:26:24;;;;;;;6.10;3.87;;;15.40;62.50;;;;;;4941305;29;20415;-86
2021/05/08 11:29:05;;;;;;;5.37;3.63;;;15.30;63.70;;;;;;4940894;29;20419;-87
2021/05/08 11:31:47;;;;;;;5.57;3.93;;;15.40;64.00;;;;;;4941714;28;20485;-87
2021/05/08 11:34:20;;;;;;;5.73;4.20;;;15.50;65.10;;;;;;4958243;29;20395;-86
2021/05/08 11:36:55;;;;;;;5.93;4.63;;;15.70;64.50;;;;;;4941331;29;20462;-86
2021/05/08 11:39:33;;;;;;;7.87;4.23;;;15.80;64.20;;;;;;4940872;29;20458;-85
2021/05/08 11:42:09;;;;;;;8.13;3.80;;;15.70;64.40;;;;;;4940506;29;20449;-86
2021/05/08 11:44:37;;;;;;;6.03;3.90;;;15.40;63.80;;;;;;4940859;29;20857;-85
2021/05/08 11:47:35;;;;;;;4.47;3.83;;;15.20;64.40;;;;;;4957891;29;20419;-87
2021/05/08 11:50:05;;;;;;;7.30;3.73;;;15.20;65.50;;;;;;4967148;28;20986;-84
2021/05/08 11:52:41;;;;;;;3.50;3.33;;;15.40;66.10;;;;;;4952735;28;20490;-85
2021/05/08 11:55:16;;;;;;;5.33;3.93;;;15.30;65.50;;;;;;4954433;29;20461;-85
2021/05/08 11:57:46;;;;;;;4.50;3.70;;;15.20;65.60;;;;;;4955860;29;20453;-83
2021/05/08 12:00:18;;;;;;;14.23;8.00;;;15.10;66.60;;;;;;4954472;29;20902;-85
2021/05/08 12:02:44;;;;;;;5.63;4.13;;;15.20;66.80;;;;;;4955236;28;20443;-84
2021/05/08 12:05:10;;;;;;;4.00;3.30;;;15.30;66.30;;;;;;4955962;29;20925;-85
2021/05/08 12:07:43;;;;;;;6.40;3.20;;;15.50;66.40;;;;;;4955782;29;20179;-87
2021/05/08 12:10:14;;;;;;;4.50;3.57;;;15.80;65.00;;;;;;4957719;28;20410;-85
2021/05/08 12:12:56;;;;;;;4.80;3.43;;;15.70;64.80;;;;;;4958484;28;20485;-86
2021/05/08 12:15:31;;;;;;;4.93;3.43;;;15.60;66.40;;;;;;4951949;29;20427;-85
2021/05/08 12:17:59;;;;;;;5.93;4.47;;;15.60;66.10;;;;;;4940758;29;20457;-85
2021/05/08 12:20:28;;;;;;;6.37;4.23;;;15.60;65.50;;;;;;4955862;29;20454;-86
2021/05/08 12:23:06;;;;;;;5.00;3.80;;;15.70;66.70;;;;;;4956335;28;20435;-85
2021/05/08 12:25:35;;;;;;;5.63;3.47;;;15.80;66.00;;;;;;4958035;28;20395;-87
2021/05/08 12:28:18;;;;;;;6.17;3.60;;;15.80;66.00;;;;;;4955649;29;20964;-86
2021/05/08 12:30:45;;;;;;;5.23;3.43;;;16.00;66.60;;;;;;4957181;28;20445;-86
2021/05/08 12:33:22;;;;;;;4.13;3.20;;;16.20;66.70;;;;;;4939842;28;20510;-86
2021/05/08 12:35:49;;;;;;;3.83;2.77;;;16.50;66.10;;;;;;4937308;29;20569;-86
2021/05/08 12:38:21;;;;;;;6.50;3.33;;;17.00;65.70;;;;;;4953512;29;20562;-86
2021/05/08 12:40:48;;;;;;;4.37;3.63;;;17.20;63.30;;;;;;4952734;29;20419;-87
2021/05/08 12:43:28;;;;;;;10.27;4.03;;;17.50;63.60;;;;;;4953750;28;20427;-86
2021/05/08 12:46:05;;;;;;;3.33;2.80;;;17.20;62.60;;;;;;4954255;29;20545;-86
2021/05/08 12:48:34;;;;;;;4.20;3.37;;;16.70;63.60;;;;;;4948880;29;20445;-86
2021/05/08 12:50:59;;;;;;;10.37;4.70;;;16.30;63.90;;;;;;4954766;28;20431;-87
2021/05/08 12:53:25;;;;;;;6.83;2.90;;;16.30;64.90;;;;;;4991526;23;20506;-74
2021/05/08 12:56:02;;;;;;;3.33;3.17;;;16.30;64.60;;;;;;4956934;28;20692;-75